Time;durP1;ratioP1;P1;durP2;ratioP2;P2;SDS_P1;SDS_P2;PMS_P1;PMS_P2;Temp;Humidity;BMP_temperature;BMP_pressure;BME280_temperature;BME280_humidity;BME280_pressure;Samples;Min_cycle;Max_cycle;Signal;HPM_P1;HPM_P2
2023/10/26 00:01:27;;;;;;;2.53;1.07;;;14.40;99.90;;;;;;5091131;28;20504;-69
2023/10/26 00:03:52;;;;;;;3.63;1.10;;;14.40;99.90;;;;;;5078500;28;20099;-68
2023/10/26 00:06:18;;;;;;;1.73;1.07;;;14.50;99.90;;;;;;5072544;28;20764;-69
2023/10/26 00:08:43;;;;;;;4.27;0.87;;;14.50;99.90;;;;;;5076650;28;20039;-69
2023/10/26 00:11:09;;;;;;;4.23;1.40;;;14.40;99.90;;;;;;5079743;28;20016;-68
2023/10/26 00:13:35;;;;;;;6.20;1.60;;;14.50;99.90;;;;;;5077833;28;20038;-67
2023/10/26 00:16:00;;;;;;;2.50;1.13;;;14.50;99.90;;;;;;5080843;28;20048;-67
2023/10/26 00:18:26;;;;;;;4.00;1.20;;;14.40;99.90;;;;;;5081510;28;20082;-68
2023/10/26 00:20:59;;;;;;;4.07;1.17;;;14.40;99.90;;;;;;5079891;28;20484;-67
2023/10/26 00:23:25;;;;;;;6.25;1.08;;;14.40;99.90;;;;;;5078510;28;20028;-68
2023/10/26 00:25:50;;;;;;;4.93;1.27;;;14.40;99.90;;;;;;5078987;28;20488;-69
2023/10/26 00:28:16;;;;;;;7.50;0.87;;;14.40;99.90;;;;;;5083024;28;20036;-71
2023/10/26 00:30:42;;;;;;;3.30;1.00;;;14.40;99.90;;;;;;5077848;28;20328;-68
2023/10/26 00:33:08;;;;;;;4.50;1.33;;;14.50;99.90;;;;;;5079824;28;20070;-67
2023/10/26 00:35:34;;;;;;;4.32;1.45;;;14.50;99.90;;;;;;5081113;28;20035;-72
2023/10/26 00:38:00;;;;;;;7.23;1.57;;;14.50;99.90;;;;;;5080404;28;20491;-68
2023/10/26 00:40:25;;;;;;;5.33;1.50;;;14.60;99.90;;;;;;5081102;28;20305;-68
2023/10/26 00:42:57;;;;;;;5.68;1.30;;;14.50;99.90;;;;;;5077636;28;20024;-69
2023/10/26 00:45:23;;;;;;;2.58;0.98;;;14.50;99.90;;;;;;5077741;28;20500;-72
2023/10/26 00:47:50;;;;;;;6.13;1.30;;;14.50;99.90;;;;;;5078285;28;20035;-73
2023/10/26 00:50:16;;;;;;;5.00;1.10;;;14.50;99.90;;;;;;5084910;28;20012;-72
2023/10/26 00:52:42;;;;;;;5.50;1.50;;;14.50;99.90;;;;;;5082262;28;20032;-70
2023/10/26 00:55:08;;;;;;;3.58;1.23;;;14.50;99.90;;;;;;5075729;28;20033;-69
2023/10/26 00:57:35;;;;;;;;;;;14.50;99.90;;;;;;5079574;28;20054;-68
2023/10/26 01:00:01;;;;;;;3.08;0.70;;;14.50;99.90;;;;;;5081410;28;20455;-67
2023/10/26 01:02:27;;;;;;;6.55;1.70;;;14.60;99.90;;;;;;5096722;28;20495;-68
2023/10/26 01:04:52;;;;;;;7.03;1.30;;;14.60;99.90;;;;;;5081282;28;20834;-70
2023/10/26 01:07:18;;;;;;;6.13;1.17;;;14.60;99.90;;;;;;5078444;28;20146;-68
2023/10/26 01:09:44;;;;;;;3.40;1.02;;;14.60;99.90;;;;;;5070266;28;20109;-68
2023/10/26 01:12:10;;;;;;;5.85;1.20;;;14.60;99.90;;;;;;5077236;28;20012;-69
2023/10/26 01:14:36;;;;;;;8.10;1.35;;;14.70;99.90;;;;;;5079099;28;20492;-70
2023/10/26 01:17:02;;;;;;;5.03;1.25;;;14.60;99.90;;;;;;5078189;28;20062;-70
2023/10/26 01:19:38;;;;;;;3.42;1.02;;;14.70;99.90;;;;;;5078295;28;20048;-67
2023/10/26 01:22:04;;;;;;;2.95;1.23;;;14.70;99.90;;;;;;5082885;28;20437;-71
2023/10/26 01:24:29;;;;;;;1.63;0.83;;;14.70;99.90;;;;;;5080979;28;20102;-68
2023/10/26 01:26:55;;;;;;;3.67;0.80;;;14.70;99.90;;;;;;5092763;28;20032;-72
2023/10/26 01:29:21;;;;;;;11.80;1.20;;;14.70;99.90;;;;;;5076719;28;20028;-71
2023/10/26 01:31:47;;;;;;;3.33;1.20;;;14.70;99.90;;;;;;5077606;28;20278;-71
2023/10/26 01:34:13;;;;;;;5.22;1.48;;;14.80;99.90;;;;;;5075104;28;20016;-72
2023/10/26 01:36:39;;;;;;;7.40;1.20;;;14.70;99.90;;;;;;5099657;28;20039;-68
2023/10/26 01:39:05;;;;;;;4.05;1.10;;;14.80;99.90;;;;;;5077191;28;20686;-67
2023/10/26 01:41:32;;;;;;;5.75;1.10;;;14.80;99.90;;;;;;5079610;28;20071;-68
2023/10/26 01:43:58;;;;;;;2.78;1.02;;;14.70;99.90;;;;;;5076853;28;20102;-68
2023/10/26 01:46:24;;;;;;;9.43;1.23;;;14.70;99.90;;;;;;5076441;28;20033;-68
2023/10/26 01:48:49;;;;;;;6.97;1.23;;;14.90;99.90;;;;;;5081630;28;20100;-70
2023/10/26 01:51:15;;;;;;;4.17;1.30;;;14.80;99.90;;;;;;5081708;28;20055;-67
2023/10/26 01:53:40;;;;;;;4.37;1.83;;;14.80;99.90;;;;;;5074714;28;20510;-68
2023/10/26 01:56:06;;;;;;;4.80;1.67;;;14.80;99.90;;;;;;5075772;28;20031;-67
2023/10/26 01:58:32;;;;;;;5.67;1.40;;;14.90;99.90;;;;;;5075240;28;20123;-71
2023/10/26 02:00:57;;;;;;;9.00;0.90;;;14.80;99.90;;;;;;5078005;28;20094;-68
2023/10/26 02:03:23;;;;;;;3.90;1.00;;;14.90;99.90;;;;;;5076266;28;20035;-66
2023/10/26 02:05:49;;;;;;;3.43;1.20;;;15.00;99.90;;;;;;5077726;28;20123;-71
2023/10/26 02:08:15;;;;;;;5.03;1.08;;;14.90;99.90;;;;;;5073497;28;20092;-67
2023/10/26 02:10:41;;;;;;;8.13;1.08;;;15.00;99.90;;;;;;5075468;28;20480;-68
2023/10/26 02:13:07;;;;;;;7.05;1.17;;;14.90;99.90;;;;;;5079567;28;20487;-68
2023/10/26 02:15:32;;;;;;;3.35;1.25;;;14.90;99.90;;;;;;5078917;28;20042;-68
2023/10/26 02:17:58;;;;;;;3.93;0.83;;;14.80;99.90;;;;;;5075319;28;20047;-68
2023/10/26 02:20:24;;;;;;;5.93;0.90;;;14.80;99.90;;;;;;5081786;28;20024;-68
2023/10/26 02:22:49;;;;;;;3.57;0.80;;;14.90;99.90;;;;;;5073356;28;20027;-70
2023/10/26 02:25:15;;;;;;;6.33;1.17;;;14.90;99.90;;;;;;5074626;28;20099;-68
2023/10/26 02:27:40;;;;;;;3.83;1.33;;;15.00;99.90;;;;;;5079346;28;20037;-73
2023/10/26 02:30:07;;;;;;;6.20;1.20;;;15.00;99.90;;;;;;5079364;28;20103;-70
2023/10/26 02:32:33;;;;;;;8.27;0.90;;;14.90;99.90;;;;;;5080759;28;20033;-66
2023/10/26 02:34:59;;;;;;;2.42;1.02;;;14.90;99.90;;;;;;5078840;28;20028;-69
2023/10/26 02:37:24;;;;;;;3.70;1.20;;;14.80;99.90;;;;;;5080843;28;20050;-69
2023/10/26 02:39:50;;;;;;;4.03;0.80;;;14.80;99.90;;;;;;5070979;28;20709;-68
2023/10/26 02:42:16;;;;;;;4.30;1.40;;;14.90;99.90;;;;;;5069712;28;20058;-67
2023/10/26 02:44:41;;;;;;;3.80;0.90;;;14.90;99.90;;;;;;5077497;28;20036;-70
2023/10/26 02:47:07;;;;;;;7.80;1.07;;;14.90;99.90;;;;;;5075606;28;20041;-70
2023/10/26 02:49:33;;;;;;;4.03;1.00;;;14.90;99.90;;;;;;5080746;28;20481;-67
2023/10/26 02:51:58;;;;;;;4.25;1.10;;;14.90;99.90;;;;;;5077238;28;20476;-67
2023/10/26 02:54:28;;;;;;;2.37;0.80;;;14.90;99.90;;;;;;5076281;28;20028;-67
2023/10/26 02:56:54;;;;;;;3.33;0.90;;;15.00;99.90;;;;;;5078686;28;20027;-67
2023/10/26 02:59:20;;;;;;;11.52;1.42;;;15.00;99.90;;;;;;5081544;28;20043;-67
2023/10/26 03:01:45;;;;;;;5.47;1.00;;;14.90;99.90;;;;;;5078046;28;20027;-68
2023/10/26 03:04:11;;;;;;;4.60;1.13;;;15.00;99.90;;;;;;5078694;28;20358;-67
2023/10/26 03:06:38;;;;;;;3.37;1.10;;;15.00;99.90;;;;;;5073569;28;20047;-69
2023/10/26 03:09:04;;;;;;;5.53;1.02;;;15.00;99.90;;;;;;5078701;28;20042;-67
2023/10/26 03:11:30;;;;;;;;;;;15.10;99.90;;;;;;5076592;28;20047;-70
2023/10/26 03:13:56;;;;;;;6.47;1.30;;;15.10;99.90;;;;;;5075757;28;20014;-72
2023/10/26 03:16:21;;;;;;;5.53;1.57;;;15.20;99.90;;;;;;5071775;28;20382;-70
2023/10/26 03:18:47;;;;;;;3.93;1.00;;;15.10;99.90;;;;;;5071191;28;20040;-68
2023/10/26 03:21:15;;;;;;;3.63;1.00;;;15.10;99.90;;;;;;5075119;28;20597;-67
2023/10/26 03:23:40;;;;;;;3.65;1.15;;;15.10;99.90;;;;;;5075743;28;20023;-67
2023/10/26 03:26:10;;;;;;;3.33;1.20;;;15.00;99.90;;;;;;5068667;28;20021;-68
2023/10/26 03:28:35;;;;;;;4.10;1.20;;;15.00;99.90;;;;;;5075823;28;20036;-70
2023/10/26 03:31:01;;;;;;;4.10;1.07;;;15.10;99.90;;;;;;5077097;28;20365;-71
2023/10/26 03:33:27;;;;;;;4.03;1.53;;;15.00;99.90;;;;;;5073659;28;20205;-71
2023/10/26 03:35:52;;;;;;;3.30;1.10;;;15.00;99.90;;;;;;5075918;28;20065;-71
2023/10/26 03:38:18;;;;;;;3.70;1.43;;;15.10;99.90;;;;;;5089525;28;20035;-73
2023/10/26 03:40:43;;;;;;;3.13;1.20;;;15.00;99.90;;;;;;5080819;28;20480;-73
2023/10/26 03:43:09;;;;;;;4.83;0.90;;;15.10;99.90;;;;;;5073114;28;20077;-72
2023/10/26 03:45:34;;;;;;;8.20;1.80;;;15.20;99.90;;;;;;5074262;28;20039;-70
2023/10/26 03:48:00;;;;;;;3.07;0.90;;;15.20;99.90;;;;;;5078533;28;20032;-70
2023/10/26 03:50:26;;;;;;;5.40;1.10;;;15.20;99.90;;;;;;5075200;28;20033;-69
2023/10/26 03:52:51;;;;;;;5.67;1.10;;;15.10;99.90;;;;;;5079209;28;20509;-69
2023/10/26 03:55:17;;;;;;;4.90;0.93;;;15.10;99.90;;;;;;5076290;28;20028;-72
2023/10/26 03:57:44;;;;;;;2.87;1.07;;;15.00;99.90;;;;;;5082230;28;20495;-70
2023/10/26 04:00:10;;;;;;;2.88;0.80;;;15.10;99.90;;;;;;5073272;28;20287;-70
2023/10/26 04:02:36;;;;;;;4.78;0.90;;;15.10;99.90;;;;;;5074543;28;20028;-72
2023/10/26 04:05:04;;;;;;;7.67;1.00;;;15.10;99.90;;;;;;5075993;28;20405;-70
2023/10/26 04:07:29;;;;;;;3.65;0.90;;;15.00;99.90;;;;;;5074273;28;20040;-67
2023/10/26 04:09:55;;;;;;;4.30;0.83;;;14.90;99.90;;;;;;5069097;28;20547;-67
2023/10/26 04:12:21;;;;;;;3.63;0.90;;;15.00;99.90;;;;;;5071090;28;20054;-69
2023/10/26 04:14:46;;;;;;;4.07;1.20;;;15.00;99.90;;;;;;5073829;28;20036;-68
2023/10/26 04:17:14;;;;;;;5.37;0.93;;;15.00;99.90;;;;;;5072500;28;20033;-67
2023/10/26 04:19:40;;;;;;;4.80;1.02;;;15.00;99.90;;;;;;5075200;28;20036;-70
2023/10/26 04:22:06;;;;;;;3.20;1.00;;;15.00;99.90;;;;;;5068792;28;20075;-68
2023/10/26 04:24:33;;;;;;;4.90;0.90;;;15.10;99.90;;;;;;5073467;28;20111;-68
2023/10/26 04:26:59;;;;;;;3.05;0.75;;;15.10;99.90;;;;;;5076021;28;20127;-69
2023/10/26 04:29:25;;;;;;;;;;;15.10;99.90;;;;;;5074000;28;20032;-67
2023/10/26 04:31:50;;;;;;;6.75;1.30;;;15.00;99.90;;;;;;5074140;28;19913;-67
2023/10/26 04:34:16;;;;;;;6.50;1.37;;;15.00;99.90;;;;;;5077279;28;20032;-67
2023/10/26 04:36:42;;;;;;;3.03;1.00;;;15.00;99.90;;;;;;5078545;28;20036;-70
2023/10/26 04:39:12;;;;;;;4.50;1.20;;;15.10;99.90;;;;;;5077525;28;20841;-66
2023/10/26 04:41:38;;;;;;;4.82;1.25;;;15.10;99.90;;;;;;5076426;28;20116;-67
2023/10/26 04:44:07;;;;;;;7.63;1.00;;;15.10;99.90;;;;;;5077810;28;20241;-68
2023/10/26 04:46:33;;;;;;;9.18;2.45;;;15.00;99.90;;;;;;5074631;28;20302;-70
2023/10/26 04:48:59;;;;;;;4.00;1.30;;;15.00;99.90;;;;;;5074920;28;20649;-66
2023/10/26 04:51:24;;;;;;;2.40;0.80;;;15.00;99.90;;;;;;5077114;28;20040;-68
2023/10/26 04:53:50;;;;;;;2.97;1.05;;;15.00;99.90;;;;;;5076775;28;20495;-67
2023/10/26 04:56:16;;;;;;;2.63;1.08;;;15.10;99.90;;;;;;5071942;28;20043;-67
2023/10/26 04:58:43;;;;;;;5.70;1.27;;;15.00;99.90;;;;;;5076011;28;20123;-68
2023/10/26 05:01:09;;;;;;;3.30;0.65;;;15.10;99.90;;;;;;5074292;28;20602;-67
2023/10/26 05:03:36;;;;;;;5.05;1.20;;;15.10;99.90;;;;;;5075084;28;20571;-67
2023/10/26 05:06:02;;;;;;;8.70;1.10;;;15.30;99.90;;;;;;5073893;28;20204;-68
2023/10/26 05:08:28;;;;;;;2.92;1.10;;;15.30;99.90;;;;;;5081045;28;20036;-69
2023/10/26 05:10:53;;;;;;;7.23;1.83;;;15.20;99.90;;;;;;5079392;28;20567;-70
2023/10/26 05:13:19;;;;;;;8.33;1.10;;;15.20;99.90;;;;;;5077262;28;20387;-69
2023/10/26 05:15:45;;;;;;;7.47;1.00;;;15.30;99.90;;;;;;5077343;28;20914;-68
2023/10/26 05:18:10;;;;;;;4.43;0.90;;;15.30;99.90;;;;;;5076575;28;20032;-70
2023/10/26 05:20:37;;;;;;;3.30;0.90;;;15.20;99.90;;;;;;5076372;28;20445;-71
2023/10/26 05:23:02;;;;;;;;;;;15.10;99.90;;;;;;5073710;28;20035;-71
2023/10/26 05:25:28;;;;;;;8.18;1.20;;;15.10;99.90;;;;;;5079257;28;19912;-67
2023/10/26 05:27:54;;;;;;;2.90;1.13;;;15.10;99.90;;;;;;5074024;28;20044;-68
2023/10/26 05:30:20;;;;;;;3.35;1.10;;;15.10;99.90;;;;;;5073203;28;20287;-73
2023/10/26 05:32:45;;;;;;;6.70;0.97;;;15.00;99.90;;;;;;5079806;28;20110;-69
2023/10/26 05:35:11;;;;;;;8.73;1.20;;;15.10;99.90;;;;;;5076791;28;20029;-73
2023/10/26 05:37:37;;;;;;;7.90;1.40;;;15.10;99.90;;;;;;5073913;28;20085;-71
2023/10/26 05:40:04;;;;;;;2.50;1.00;;;15.10;99.90;;;;;;5076778;28;20685;-73
2023/10/26 05:42:30;;;;;;;3.63;0.93;;;15.10;99.90;;;;;;5073926;28;20064;-73
2023/10/26 05:44:56;;;;;;;2.72;1.05;;;15.10;99.90;;;;;;5075720;28;20075;-74
2023/10/26 05:47:22;;;;;;;3.53;1.27;;;15.00;99.90;;;;;;5075861;28;20521;-73
2023/10/26 05:49:48;;;;;;;4.03;1.10;;;14.90;99.90;;;;;;5072298;28;20099;-73
2023/10/26 05:52:14;;;;;;;5.13;1.00;;;14.90;99.90;;;;;;5079043;28;20036;-73
2023/10/26 05:54:40;;;;;;;5.85;1.13;;;14.90;99.90;;;;;;5073121;28;20115;-71
2023/10/26 05:57:05;;;;;;;6.93;1.30;;;15.00;99.90;;;;;;5072058;28;20115;-71
2023/10/26 05:59:31;;;;;;;9.00;1.00;;;15.00;99.90;;;;;;5078633;28;20028;-69
2023/10/26 06:01:57;;;;;;;4.75;2.17;;;15.10;99.90;;;;;;5079377;28;20024;-66
2023/10/26 06:04:23;;;;;;;5.27;0.97;;;15.10;99.90;;;;;;5076299;28;20046;-67
2023/10/26 06:06:48;;;;;;;10.40;1.42;;;15.10;99.90;;;;;;5069760;28;20024;-67
2023/10/26 06:09:14;;;;;;;7.33;1.10;;;15.10;99.90;;;;;;5070223;28;20040;-67
2023/10/26 06:11:40;;;;;;;9.37;1.30;;;15.10;99.90;;;;;;5077846;28;20030;-66
2023/10/26 06:14:05;;;;;;;10.63;1.30;;;15.20;99.90;;;;;;5074255;28;20032;-67
2023/10/26 06:16:31;;;;;;;6.17;1.13;;;15.20;99.90;;;;;;5072670;28;20032;-70
2023/10/26 06:18:56;;;;;;;4.03;1.20;;;15.20;99.90;;;;;;5073299;28;20028;-66
2023/10/26 06:21:22;;;;;;;3.97;1.00;;;15.20;99.90;;;;;;5075791;28;20827;-66
2023/10/26 06:23:48;;;;;;;6.17;1.20;;;15.10;99.90;;;;;;5073161;28;20082;-68
2023/10/26 06:26:13;;;;;;;6.97;1.10;;;15.10;99.90;;;;;;5074897;28;20039;-68
2023/10/26 06:28:39;;;;;;;5.67;1.20;;;15.20;99.90;;;;;;5094523;28;20074;-67
2023/10/26 06:31:10;;;;;;;4.13;1.20;;;15.20;99.90;;;;;;5075839;28;20107;-67
2023/10/26 06:33:36;;;;;;;3.70;0.90;;;15.20;99.90;;;;;;5075312;28;20043;-71
2023/10/26 06:36:02;;;;;;;6.03;1.30;;;15.20;99.90;;;;;;5074095;28;20809;-68
2023/10/26 06:38:28;;;;;;;5.55;1.00;;;15.30;99.90;;;;;;5077282;28;20036;-66
2023/10/26 06:40:54;;;;;;;2.83;0.98;;;15.30;99.90;;;;;;5086633;28;20126;-72
2023/10/26 06:43:22;;;;;;;6.85;1.35;;;15.30;99.90;;;;;;5076485;28;20032;-67
2023/10/26 06:45:48;;;;;;;4.00;0.93;;;15.20;99.90;;;;;;5072816;28;20128;-71
2023/10/26 06:48:13;;;;;;;4.33;1.50;;;15.30;99.90;;;;;;5070842;28;20131;-68
2023/10/26 06:50:39;;;;;;;4.73;1.07;;;15.40;99.90;;;;;;5071848;28;20031;-69
2023/10/26 06:53:04;;;;;;;11.40;1.27;;;15.40;99.90;;;;;;5079850;28;20666;-68
2023/10/26 06:55:33;;;;;;;2.27;0.87;;;15.40;99.90;;;;;;5073050;28;20089;-72
2023/10/26 06:57:59;;;;;;;6.10;1.58;;;15.40;99.90;;;;;;5068532;28;20020;-71
2023/10/26 07:00:25;;;;;;;14.63;1.87;;;15.30;99.90;;;;;;5072298;28;20035;-67
2023/10/26 07:02:50;;;;;;;7.20;1.20;;;15.40;99.90;;;;;;5074001;28;20344;-71
2023/10/26 07:05:16;;;;;;;15.47;1.47;;;15.40;99.90;;;;;;5077625;28;20898;-68
2023/10/26 07:07:42;;;;;;;3.17;1.10;;;15.30;99.90;;;;;;5077580;28;20064;-68
2023/10/26 07:10:14;;;;;;;4.15;0.90;;;15.30;99.90;;;;;;5075714;28;20791;-70
2023/10/26 07:12:42;;;;;;;7.63;1.27;;;15.40;99.90;;;;;;5074033;28;20378;-69
2023/10/26 07:15:08;;;;;;;4.40;1.23;;;15.40;99.90;;;;;;5072747;28;20961;-70
2023/10/26 07:17:34;;;;;;;6.95;1.40;;;15.30;99.90;;;;;;5074887;28;20016;-68
2023/10/26 07:20:01;;;;;;;;;;;15.30;99.90;;;;;;5075308;28;20033;-68
2023/10/26 07:22:27;;;;;;;3.70;1.27;;;15.40;99.90;;;;;;5074131;28;19927;-70
2023/10/26 07:24:53;;;;;;;3.53;1.30;;;15.30;99.90;;;;;;5077533;28;20492;-70
2023/10/26 07:27:19;;;;;;;8.20;1.57;;;15.30;99.90;;;;;;5071108;28;20040;-68
2023/10/26 07:29:46;;;;;;;2.67;1.05;;;15.40;99.90;;;;;;5070300;28;20024;-68
2023/10/26 07:32:12;;;;;;;3.00;1.02;;;15.40;99.90;;;;;;5078462;28;20111;-71
2023/10/26 07:34:37;;;;;;;4.50;1.08;;;15.40;99.90;;;;;;5078532;28;20032;-70
2023/10/26 07:37:03;;;;;;;3.23;1.43;;;15.40;99.90;;;;;;5072345;28;20033;-69
2023/10/26 07:39:33;;;;;;;6.57;1.87;;;15.40;99.90;;;;;;5080716;28;20025;-68
2023/10/26 07:41:58;;;;;;;3.58;1.27;;;15.30;99.90;;;;;;5074832;28;20040;-67
2023/10/26 07:44:24;;;;;;;3.83;1.00;;;15.30;99.90;;;;;;5075057;28;20028;-67
2023/10/26 07:46:49;;;;;;;3.87;1.50;;;15.30;99.90;;;;;;5072312;28;20037;-67
2023/10/26 07:49:15;;;;;;;4.07;1.43;;;15.30;99.90;;;;;;5071102;28;20035;-70
2023/10/26 07:51:40;;;;;;;4.57;1.10;;;15.40;99.90;;;;;;5082088;28;20028;-69
2023/10/26 07:54:06;;;;;;;4.20;1.20;;;15.30;99.90;;;;;;5075812;28;20028;-71
2023/10/26 07:56:32;;;;;;;5.32;1.27;;;15.40;99.90;;;;;;5071242;28;20060;-70
2023/10/26 07:58:58;;;;;;;6.30;1.60;;;15.30;99.90;;;;;;5075299;28;20035;-72
2023/10/26 08:01:24;;;;;;;6.65;1.20;;;15.30;99.90;;;;;;5079618;28;20056;-70
2023/10/26 08:03:49;;;;;;;12.37;1.47;;;15.30;99.90;;;;;;5080349;28;20045;-72
2023/10/26 08:06:15;;;;;;;5.40;1.10;;;15.30;99.90;;;;;;5074161;28;20557;-72
2023/10/26 08:08:40;;;;;;;4.93;1.27;;;15.40;99.90;;;;;;5080416;28;20111;-67
2023/10/26 08:11:15;;;;;;;5.97;1.20;;;15.30;99.90;;;;;;5081556;28;20031;-67
2023/10/26 08:13:41;;;;;;;4.93;1.17;;;15.40;99.90;;;;;;5081575;28;20500;-69
2023/10/26 08:16:07;;;;;;;3.73;1.30;;;15.30;99.90;;;;;;5080539;28;20107;-66
2023/10/26 08:18:33;;;;;;;6.05;1.27;;;15.30;99.90;;;;;;5075649;28;20026;-66
2023/10/26 08:20:59;;;;;;;5.75;1.10;;;15.30;99.90;;;;;;5078418;28;20111;-67
2023/10/26 08:23:29;;;;;;;6.22;0.90;;;15.30;99.90;;;;;;5081195;28;20078;-66
2023/10/26 08:25:55;;;;;;;3.80;1.10;;;15.30;99.90;;;;;;5074503;28;20044;-68
2023/10/26 08:28:20;;;;;;;2.33;0.90;;;15.30;99.90;;;;;;5081502;28;20092;-70
2023/10/26 08:30:46;;;;;;;2.33;0.97;;;15.40;99.90;;;;;;5084853;28;20023;-68
2023/10/26 08:33:12;;;;;;;4.07;1.50;;;15.40;99.90;;;;;;5081597;28;20027;-68
2023/10/26 08:35:39;;;;;;;4.63;0.87;;;15.30;99.90;;;;;;5079318;28;20868;-68
2023/10/26 08:38:04;;;;;;;4.75;1.20;;;15.30;99.90;;;;;;5079680;28;20023;-67
2023/10/26 08:40:30;;;;;;;6.63;1.63;;;15.40;99.90;;;;;;5075901;28;20020;-66
2023/10/26 08:42:56;;;;;;;8.53;1.33;;;15.30;99.90;;;;;;5086550;28;20039;-72
2023/10/26 08:45:24;;;;;;;10.63;1.73;;;15.20;99.90;;;;;;5082181;28;20017;-70
2023/10/26 08:47:50;;;;;;;4.72;1.52;;;15.10;99.90;;;;;;5080361;28;20078;-71
2023/10/26 08:50:24;;;;;;;4.82;1.65;;;15.20;99.90;;;;;;5081112;28;20028;-67
2023/10/26 08:52:51;;;;;;;6.28;1.40;;;15.10;99.90;;;;;;5075613;28;20074;-67
2023/10/26 08:55:17;;;;;;;5.97;1.17;;;15.10;99.90;;;;;;5080392;28;20065;-68
2023/10/26 08:57:46;;;;;;;4.63;1.50;;;15.10;99.90;;;;;;5077271;28;20036;-71
2023/10/26 09:00:12;;;;;;;4.72;1.40;;;15.10;99.90;;;;;;5075252;28;20078;-66
2023/10/26 09:02:38;;;;;;;3.15;1.40;;;14.90;99.90;;;;;;5081366;28;20043;-68
2023/10/26 09:05:04;;;;;;;5.80;2.00;;;14.90;99.90;;;;;;5076215;28;20036;-67
2023/10/26 09:07:31;;;;;;;6.15;1.67;;;14.70;99.90;;;;;;5078812;28;20063;-68
2023/10/26 09:09:56;;;;;;;8.85;1.50;;;14.70;99.90;;;;;;5079508;28;20024;-71
2023/10/26 09:12:22;;;;;;;6.73;1.93;;;14.70;99.90;;;;;;5076889;28;20028;-68
2023/10/26 09:15:05;;;;;;;9.17;1.40;;;14.60;99.90;;;;;;5075665;28;20107;-67
2023/10/26 09:17:32;;;;;;;5.13;1.70;;;14.70;99.90;;;;;;5073454;28;20060;-67
2023/10/26 09:19:58;;;;;;;10.48;1.58;;;14.70;99.90;;;;;;5077152;28;20480;-66
2023/10/26 09:22:38;;;;;;;4.30;1.70;;;14.70;99.90;;;;;;5098793;28;20057;-67
2023/10/26 09:25:11;;;;;;;11.13;2.00;;;14.80;99.90;;;;;;5074795;28;20029;-67
2023/10/26 09:27:37;;;;;;;5.88;1.55;;;14.80;99.90;;;;;;5078329;28;20039;-67
2023/10/26 09:30:04;;;;;;;3.95;1.30;;;14.80;99.90;;;;;;5075897;28;20436;-68
2023/10/26 09:32:34;;;;;;;5.05;1.75;;;14.80;99.90;;;;;;5082491;28;20021;-69
2023/10/26 09:35:01;;;;;;;9.57;1.40;;;14.80;99.90;;;;;;5074677;28;20024;-66
2023/10/26 09:37:27;;;;;;;4.32;1.17;;;14.80;99.90;;;;;;5072568;28;20980;-67
2023/10/26 09:39:52;;;;;;;5.70;1.60;;;14.80;99.90;;;;;;5094486;28;20024;-69
2023/10/26 09:42:19;;;;;;;5.27;1.70;;;14.80;99.90;;;;;;5075249;28;20416;-69
2023/10/26 09:44:45;;;;;;;7.75;1.45;;;14.80;99.90;;;;;;5086329;28;20589;-70
2023/10/26 09:47:11;;;;;;;5.13;1.65;;;14.80;99.90;;;;;;5077197;28;20020;-70
2023/10/26 09:49:37;;;;;;;4.60;1.40;;;14.70;99.90;;;;;;5080771;28;20166;-68
2023/10/26 09:52:03;;;;;;;6.88;1.55;;;14.70;99.90;;;;;;5082635;28;20119;-68
2023/10/26 09:54:37;;;;;;;6.78;1.33;;;14.70;99.90;;;;;;5075023;28;20500;-67
2023/10/26 09:57:06;;;;;;;4.30;1.52;;;14.80;99.90;;;;;;5080842;28;20024;-70
2023/10/26 09:59:32;;;;;;;7.10;2.38;;;14.80;99.90;;;;;;5079228;28;20043;-67
2023/10/26 10:01:58;;;;;;;2.60;1.40;;;14.80;99.90;;;;;;5080392;28;20025;-70
2023/10/26 10:04:37;;;;;;;3.53;1.30;;;14.80;99.90;;;;;;5078763;28;20118;-68
2023/10/26 10:07:03;;;;;;;6.15;1.38;;;14.90;99.90;;;;;;5077267;28;20131;-71
2023/10/26 10:09:29;;;;;;;4.75;1.40;;;14.80;99.90;;;;;;5081892;28;20021;-71
2023/10/26 10:12:04;;;;;;;6.57;1.65;;;14.80;99.90;;;;;;5091921;28;20060;-70
2023/10/26 10:15:13;;;;;;;6.55;1.40;;;14.80;99.90;;;;;;5074179;28;20024;-68
2023/10/26 10:17:44;;;;;;;4.43;1.48;;;14.80;99.90;;;;;;5069545;28;20811;-71
2023/10/26 10:20:19;;;;;;;7.22;1.23;;;14.80;99.90;;;;;;5079418;28;20044;-67
2023/10/26 10:22:48;;;;;;;3.33;1.42;;;14.90;99.90;;;;;;5079527;28;20023;-68
2023/10/26 10:25:17;;;;;;;8.63;1.25;;;14.80;99.90;;;;;;5069320;28;20036;-72
2023/10/26 10:28:09;;;;;;;6.65;1.35;;;14.80;99.90;;;;;;5076198;28;20097;-66
2023/10/26 10:30:57;;;;;;;8.23;1.50;;;14.90;99.90;;;;;;5088732;28;20075;-70
2023/10/26 10:33:30;;;;;;;2.75;1.17;;;14.90;99.90;;;;;;5078690;28;20029;-67
2023/10/26 10:36:04;;;;;;;3.78;1.10;;;14.90;99.90;;;;;;5076033;28;20048;-70
2023/10/26 10:38:30;;;;;;;10.63;1.40;;;15.00;99.90;;;;;;5074772;28;20681;-67
2023/10/26 10:40:59;;;;;;;;;;;15.00;99.90;;;;;;5082043;28;20025;-66
2023/10/26 10:43:45;;;;;;;6.57;1.40;;;15.00;99.90;;;;;;5077366;28;19908;-68
2023/10/26 10:46:21;;;;;;;5.72;1.58;;;15.10;99.90;;;;;;5075724;28;20077;-70
2023/10/26 10:49:00;;;;;;;5.28;1.23;;;15.00;99.90;;;;;;5074088;28;20036;-67
2023/10/26 10:51:36;;;;;;;3.67;1.63;;;15.10;99.90;;;;;;5079617;28;20032;-67
2023/10/26 10:54:15;;;;;;;8.40;1.70;;;15.10;99.90;;;;;;5074017;28;20027;-66
2023/10/26 10:56:47;;;;;;;3.65;1.50;;;15.20;99.90;;;;;;5073058;28;20024;-69
2023/10/26 10:59:21;;;;;;;5.32;1.58;;;15.20;99.90;;;;;;5077567;28;20050;-66
2023/10/26 11:02:05;;;;;;;4.22;1.63;;;15.20;99.90;;;;;;5078231;28;20026;-68
2023/10/26 11:04:30;;;;;;;3.50;1.50;;;15.20;99.90;;;;;;5072303;28;20527;-67
2023/10/26 11:06:56;;;;;;;1.97;1.57;;;15.20;99.90;;;;;;5074496;28;20032;-66
2023/10/26 11:09:31;;;;;;;5.77;2.10;;;15.20;99.90;;;;;;5081373;28;20384;-67
2023/10/26 11:12:08;;;;;;;4.25;1.98;;;15.20;99.90;;;;;;5081351;28;20017;-70
2023/10/26 11:14:34;;;;;;;5.05;2.08;;;15.10;99.90;;;;;;5084274;28;20029;-69
2023/10/26 11:17:00;;;;;;;8.87;2.27;;;15.10;99.90;;;;;;5080345;28;20032;-69
2023/10/26 11:19:25;;;;;;;7.15;1.95;;;15.10;99.90;;;;;;5080264;28;20016;-67
2023/10/26 11:21:58;;;;;;;4.67;1.70;;;15.10;99.90;;;;;;5072779;28;20064;-66
2023/10/26 11:24:32;;;;;;;5.72;2.30;;;15.10;99.90;;;;;;5074728;28;20573;-66
2023/10/26 11:27:15;;;;;;;6.85;3.05;;;15.20;99.90;;;;;;5080297;28;20044;-68
2023/10/26 11:29:43;;;;;;;5.97;2.35;;;15.10;99.90;;;;;;5080827;28;20401;-67
2023/10/26 11:32:25;;;;;;;4.53;1.60;;;15.20;99.90;;;;;;5070514;28;20392;-67
2023/10/26 11:35:08;;;;;;;9.80;1.77;;;15.30;99.90;;;;;;5079790;28;20547;-68
2023/10/26 11:37:35;;;;;;;8.60;2.90;;;15.30;99.90;;;;;;5082381;28;20032;-66
2023/10/26 11:40:05;;;;;;;9.70;2.28;;;15.30;99.90;;;;;;5086913;28;20041;-68
2023/10/26 11:42:55;;;;;;;5.82;1.67;;;15.40;99.90;;;;;;5087165;28;20032;-71
2023/10/26 11:45:24;;;;;;;8.52;2.10;;;15.40;99.90;;;;;;5080710;28;20044;-72
2023/10/26 11:47:53;;;;;;;8.63;3.15;;;15.40;99.90;;;;;;5080705;28;20043;-71
2023/10/26 11:50:24;;;;;;;3.70;2.33;;;15.50;99.90;;;;;;5085574;28;20016;-67
2023/10/26 11:52:51;;;;;;;3.67;1.67;;;15.50;99.90;;;;;;5081383;28;20056;-70
2023/10/26 11:55:17;;;;;;;7.22;1.95;;;15.50;99.90;;;;;;5081651;28;20597;-69
2023/10/26 11:57:45;;;;;;;17.73;2.75;;;15.50;99.90;;;;;;5081497;28;20032;-69
2023/10/26 12:00:11;;;;;;;4.65;1.50;;;15.50;99.90;;;;;;5095806;28;20042;-70
2023/10/26 12:02:38;;;;;;;4.50;1.83;;;15.60;99.90;;;;;;5082705;28;20534;-69
2023/10/26 12:05:04;;;;;;;4.50;1.55;;;15.60;99.90;;;;;;5080051;28;20032;-71
2023/10/26 12:07:30;;;;;;;3.97;1.55;;;15.70;99.90;;;;;;5076734;28;20408;-71
2023/10/26 12:09:56;;;;;;;7.50;1.60;;;15.70;99.90;;;;;;5072421;28;20025;-71
2023/10/26 12:12:22;;;;;;;10.17;2.40;;;15.70;99.90;;;;;;5074765;28;20130;-69
2023/10/26 12:14:48;;;;;;;2.90;1.43;;;15.70;99.90;;;;;;5081121;28;20034;-72
2023/10/26 12:17:14;;;;;;;5.35;1.85;;;15.60;99.90;;;;;;5084076;28;20357;-72
2023/10/26 12:19:39;;;;;;;4.10;1.90;;;15.60;99.90;;;;;;5084579;28;20139;-70
2023/10/26 12:22:05;;;;;;;6.23;2.13;;;15.70;99.90;;;;;;5076242;28;20035;-71
2023/10/26 12:24:30;;;;;;;4.77;2.00;;;15.70;99.90;;;;;;5077357;28;20032;-67
2023/10/26 12:26:57;;;;;;;6.33;2.37;;;15.80;99.90;;;;;;5084044;28;20044;-67
2023/10/26 12:29:22;;;;;;;5.13;1.70;;;15.80;99.90;;;;;;5078550;28;20423;-67
2023/10/26 12:31:48;;;;;;;3.90;1.60;;;15.80;99.90;;;;;;5074722;28;20032;-66
2023/10/26 12:34:14;;;;;;;4.53;1.80;;;15.90;99.90;;;;;;5085770;28;20578;-66
2023/10/26 12:36:39;;;;;;;5.33;2.13;;;15.80;99.90;;;;;;5080199;28;20779;-68
2023/10/26 12:39:05;;;;;;;5.97;1.90;;;15.80;99.90;;;;;;5077687;28;20028;-69
2023/10/26 12:41:31;;;;;;;5.93;1.83;;;15.80;99.90;;;;;;5084097;28;20403;-66
2023/10/26 12:43:56;;;;;;;2.30;1.73;;;15.70;99.90;;;;;;5081491;28;20035;-69
2023/10/26 12:46:22;;;;;;;2.53;2.23;;;15.80;99.90;;;;;;5076209;28;20068;-66
2023/10/26 12:48:48;;;;;;;4.75;1.98;;;15.80;99.90;;;;;;5075391;28;20139;-67